createdAt,value
2019-02-19T00:01:51.634Z,100960.34
2019-02-19T00:04:21.816Z,100962.98
2019-02-19T00:06:51.977Z,100967.84
2019-02-19T00:09:22.094Z,100962.12
2019-02-19T00:11:52.240Z,100965.20
2019-02-19T00:14:22.440Z,100955.51
2019-02-19T00:16:52.648Z,100958.58
2019-02-19T00:19:22.835Z,100956.38
2019-02-19T00:21:53.018Z,100955.55
2019-02-19T00:24:23.180Z,100961.24
2019-02-19T00:26:53.386Z,100966.08
2019-02-19T00:29:23.786Z,100966.07
2019-02-19T00:31:54.369Z,100970.89
2019-02-19T00:34:24.965Z,100967.36
2019-02-19T00:36:55.091Z,100962.08
2019-02-19T00:39:25.350Z,100967.77
2019-02-19T00:41:55.560Z,100966.01
2019-02-19T00:44:25.757Z,100959.81
2019-02-19T00:46:56.195Z,100967.27
2019-02-19T00:49:28.981Z,100961.12
2019-02-19T00:51:59.250Z,100965.91
2019-02-19T00:54:29.426Z,100957.11
2019-02-19T00:56:59.577Z,100957.08
2019-02-19T00:59:29.738Z,100954.43
2019-02-19T01:01:59.909Z,100950.02
2019-02-19T01:04:30.040Z,100955.26
2019-02-19T01:07:00.162Z,100951.72
2019-02-19T01:09:30.455Z,100953.02
2019-02-19T01:12:01.629Z,100949.01
2019-02-19T01:14:32.874Z,100952.94
2019-02-19T01:17:03.025Z,100955.53
2019-02-19T01:19:33.209Z,100951.53
2019-02-19T01:22:03.415Z,100949.78
2019-02-19T01:24:33.607Z,100951.50
2019-02-19T01:27:03.806Z,100943.98
2019-02-19T01:29:33.973Z,100938.73
2019-02-19T01:32:04.148Z,100937.39
2019-02-19T01:34:34.318Z,100932.97
2019-02-19T01:37:04.564Z,100936.88
2019-02-19T01:39:34.779Z,100942.13
2019-02-19T01:42:04.982Z,100928.00
2019-02-19T01:44:35.118Z,100939.45
2019-02-19T01:47:05.327Z,100936.36
2019-02-19T01:49:35.487Z,100932.88
2019-02-19T01:52:05.652Z,100933.72
2019-02-19T01:54:35.872Z,100928.87
2019-02-19T01:57:06.054Z,100935.96
2019-02-19T01:59:36.213Z,100924.94
2019-02-19T02:02:06.363Z,100926.22
2019-02-19T02:04:36.510Z,100924.08
2019-02-19T02:07:06.707Z,100927.16
2019-02-19T02:09:36.950Z,100923.17
2019-02-19T02:12:07.108Z,100930.68
2019-02-19T02:14:38.183Z,100924.92
2019-02-19T02:17:08.308Z,100933.32
2019-02-19T02:19:38.423Z,100925.80
2019-02-19T02:22:08.550Z,100930.20
2019-02-19T02:24:38.848Z,100931.96
2019-02-19T02:27:09.001Z,100924.88
2019-02-19T02:29:39.169Z,100919.62
2019-02-19T02:32:09.356Z,100923.12
2019-02-19T02:34:39.563Z,100922.24
2019-02-19T02:37:09.784Z,100911.67
2019-02-19T02:39:43.280Z,100913.88
2019-02-19T02:42:13.498Z,100916.08
2019-02-19T02:44:43.678Z,100913.85
2019-02-19T02:47:13.834Z,100905.05
2019-02-19T02:49:44.004Z,100907.27
2019-02-19T02:52:14.174Z,100910.83
2019-02-19T02:54:44.394Z,100913.91
2019-02-19T02:57:14.594Z,100912.63
2019-02-19T02:59:44.718Z,100918.77
2019-02-19T03:02:17.849Z,100925.80
2019-02-19T03:04:46.822Z,100926.28
2019-02-19T03:07:28.006Z,100928.08
2019-02-19T03:09:58.178Z,100938.20
2019-02-19T03:12:28.619Z,100928.48
2019-02-19T03:14:58.775Z,100926.72
2019-02-19T03:17:28.874Z,100933.72
2019-02-19T03:19:59.129Z,100936.89
2019-02-19T03:22:29.330Z,100924.05
2019-02-19T03:24:59.572Z,100931.90
2019-02-19T03:27:30.470Z,100935.84
2019-02-19T03:30:00.609Z,100933.61
2019-02-19T03:32:30.749Z,100934.48
2019-02-19T03:35:01.162Z,100927.91
2019-02-19T03:37:31.260Z,100931.84
2019-02-19T03:40:01.419Z,100946.73
2019-02-19T03:42:32.580Z,100945.85
2019-02-19T03:45:02.862Z,100944.97
2019-02-19T03:47:33.089Z,100940.59
2019-02-19T03:50:03.288Z,100932.69
2019-02-19T03:52:33.458Z,100932.64
2019-02-19T03:55:11.669Z,100929.95
2019-02-19T03:57:44.263Z,100929.91
2019-02-19T04:00:14.525Z,100931.66
2019-02-19T04:02:44.777Z,100931.63
2019-02-19T04:05:16.328Z,100935.09
2019-02-19T04:07:46.498Z,100933.78
2019-02-19T04:10:17.362Z,100932.45
2019-02-19T04:12:47.514Z,100919.38
2019-02-19T04:15:17.775Z,100931.77
2019-02-19T04:17:48.062Z,100939.70
2019-02-19T04:20:19.427Z,100942.84
2019-02-19T04:22:51.371Z,100939.69
2019-02-19T04:25:24.809Z,100933.09
2019-02-19T04:27:57.981Z,100938.84
2019-02-19T04:30:28.141Z,100939.29
2019-02-19T04:33:01.476Z,100944.25
2019-02-19T04:35:31.615Z,100935.45
2019-02-19T04:38:01.880Z,100939.01
2019-02-19T04:40:32.061Z,100939.88
2019-02-19T04:43:02.891Z,100934.48
2019-02-19T04:45:34.589Z,100937.51
2019-02-19T04:48:10.053Z,100941.86
2019-02-19T04:50:45.763Z,100939.68
2019-02-19T04:53:19.197Z,100938.31
2019-02-19T04:55:53.986Z,100934.34
2019-02-19T04:58:26.564Z,100938.27
2019-02-19T05:00:57.224Z,100940.48
2019-02-19T05:03:27.421Z,100950.62
2019-02-19T05:05:57.560Z,100957.23
2019-02-19T05:08:27.772Z,100959.41
2019-02-19T05:11:01.850Z,100954.97
2019-02-19T05:13:38.781Z,100957.22
2019-02-19T05:16:08.970Z,100960.23
2019-02-19T05:18:39.119Z,100958.09
2019-02-19T05:21:10.131Z,100967.36
2019-02-19T05:23:45.193Z,100971.77
2019-02-19T05:26:19.738Z,100971.78
2019-02-19T05:28:54.758Z,100970.38
2019-02-19T05:31:27.441Z,100973.92
2019-02-19T05:33:58.077Z,100972.56
2019-02-19T05:36:28.258Z,100966.52
2019-02-19T05:39:00.741Z,100965.63
2019-02-19T05:41:34.581Z,100977.52
2019-02-19T05:44:06.419Z,100989.84
2019-02-19T05:46:36.640Z,100984.56
2019-02-19T05:49:06.797Z,100984.59
2019-02-19T05:51:37.188Z,100998.23
2019-02-19T05:54:07.343Z,100999.57
2019-02-19T05:56:37.766Z,101004.90
2019-02-19T05:59:09.237Z,101003.14
2019-02-19T06:01:39.543Z,101003.09
2019-02-19T06:04:13.497Z,101005.73
2019-02-19T06:06:45.305Z,101016.48
2019-02-19T06:09:15.504Z,101022.67
2019-02-19T06:11:47.125Z,101029.69
2019-02-19T06:14:21.495Z,101032.73
2019-02-19T06:16:58.288Z,101027.42
2019-02-19T06:19:24.509Z,101024.75
2019-02-19T06:21:59.048Z,101031.41
2019-02-19T06:24:29.201Z,101035.47
2019-02-19T06:26:59.446Z,101034.14
2019-02-19T06:29:30.946Z,101026.17
2019-02-19T06:32:02.768Z,101020.03
2019-02-19T06:34:33.442Z,101032.95
2019-02-19T06:37:03.728Z,101035.12
2019-02-19T06:39:33.848Z,101038.56
2019-02-19T06:42:04.001Z,101041.23
2019-02-19T06:44:34.120Z,101048.30
2019-02-19T06:47:06.948Z,101049.11
2019-02-19T06:49:36.594Z,101050.02
2019-02-19T06:52:06.831Z,101048.64
2019-02-19T06:54:37.166Z,101049.06
2019-02-19T06:57:10.169Z,101058.74
2019-02-19T06:59:40.412Z,101066.20
2019-02-19T07:02:19.106Z,101060.91
2019-02-19T07:04:52.948Z,101060.97
2019-02-19T07:07:23.135Z,101065.79
2019-02-19T07:09:53.370Z,101068.00
2019-02-19T07:12:23.544Z,101069.25
2019-02-19T07:14:53.728Z,101075.88
2019-02-19T07:17:23.840Z,101076.32
2019-02-19T07:19:54.006Z,101074.47
2019-02-19T07:22:24.118Z,101082.02
2019-02-19T07:24:54.553Z,101071.80
2019-02-19T07:27:24.698Z,101084.11
2019-02-19T07:29:54.921Z,101079.62
2019-02-19T07:32:25.061Z,101090.25
2019-02-19T07:34:55.316Z,101088.50
2019-02-19T07:37:25.453Z,101091.61
2019-02-19T07:39:55.622Z,101094.24
2019-02-19T07:42:25.752Z,101091.98
2019-02-19T07:44:58.124Z,101092.81
2019-02-19T07:47:28.305Z,101101.68
2019-02-19T07:49:58.693Z,101098.63
2019-02-19T07:52:28.827Z,101097.24
2019-02-19T07:54:59.429Z,101109.54
2019-02-19T07:57:29.585Z,101100.25
2019-02-19T08:00:00.509Z,101105.13
2019-02-19T08:02:30.650Z,101108.73
2019-02-19T08:05:00.985Z,101116.56
2019-02-19T08:07:31.108Z,101109.58
2019-02-19T08:10:01.274Z,101117.42
2019-02-19T08:12:32.629Z,101120.91
2019-02-19T08:15:02.781Z,101123.70
2019-02-19T08:17:33.659Z,101126.45
2019-02-19T08:20:03.993Z,101130.36
2019-02-19T08:22:34.175Z,101136.08
2019-02-19T08:25:04.267Z,101130.28
2019-02-19T08:27:34.419Z,101129.88
2019-02-19T08:30:05.081Z,101130.73
2019-02-19T08:32:35.385Z,101133.42
2019-02-19T08:35:05.632Z,101148.86
2019-02-19T08:37:35.794Z,101155.78
2019-02-19T08:40:06.185Z,101152.27
2019-02-19T08:42:36.343Z,101154.33
2019-02-19T08:45:06.607Z,101153.77
2019-02-19T08:47:42.527Z,101159.60
2019-02-19T08:50:10.807Z,101156.06
2019-02-19T08:52:40.937Z,101160.50
2019-02-19T08:55:11.142Z,101157.62
2019-02-19T08:57:41.330Z,101153.66
2019-02-19T09:00:11.675Z,101161.42
2019-02-19T09:02:41.922Z,101162.66
2019-02-19T09:05:12.079Z,101166.13
2019-02-19T09:07:42.216Z,101163.64
2019-02-19T09:10:12.472Z,101162.32
2019-02-19T09:12:42.640Z,101164.34
2019-02-19T09:15:12.800Z,101171.72
2019-02-19T09:17:51.273Z,101169.83
2019-02-19T09:20:14.814Z,101171.09
2019-02-19T09:22:44.930Z,101167.03
2019-02-19T09:25:15.148Z,101173.84
2019-02-19T09:27:45.295Z,101176.01
2019-02-19T09:30:15.410Z,101174.84
2019-02-19T09:32:45.542Z,101173.47
2019-02-19T09:35:15.781Z,101176.48
2019-02-19T09:37:45.948Z,101174.02
2019-02-19T09:40:16.129Z,101169.78
2019-02-19T09:42:46.276Z,101170.17
2019-02-19T09:45:16.559Z,101172.32
2019-02-19T09:47:49.753Z,101183.55
2019-02-19T09:50:19.901Z,101181.66
2019-02-19T09:52:50.063Z,101175.83
2019-02-19T09:55:20.280Z,101169.17
2019-02-19T09:57:50.371Z,101172.74
2019-02-19T10:00:20.509Z,101176.81
2019-02-19T10:02:50.712Z,101184.48
2019-02-19T10:05:20.863Z,101184.59
2019-02-19T10:07:50.952Z,101179.81
2019-02-19T10:10:21.211Z,101179.40
2019-02-19T10:12:51.328Z,101181.32
2019-02-19T10:15:21.509Z,101188.84
2019-02-19T10:17:51.630Z,101192.33
2019-02-19T10:20:21.789Z,101191.89
2019-02-19T10:22:51.982Z,101193.56
2019-02-19T10:25:22.118Z,101188.82
2019-02-19T10:27:52.460Z,101185.25
2019-02-19T10:30:23.120Z,101190.46
2019-02-19T10:32:53.244Z,101194.34
2019-02-19T10:35:23.409Z,101190.95
2019-02-19T10:37:53.548Z,101198.67
2019-02-19T10:40:23.715Z,101194.03
2019-02-19T10:42:53.828Z,101205.77
2019-02-19T10:45:24.096Z,101202.19
2019-02-19T10:47:54.296Z,101203.36
2019-02-19T10:50:24.443Z,101198.90
2019-02-19T10:52:54.656Z,101203.63
2019-02-19T10:55:24.830Z,101202.13
2019-02-19T10:57:55.537Z,101208.05
2019-02-19T11:00:25.648Z,101207.56
2019-02-19T11:02:55.778Z,101190.18
2019-02-19T11:05:26.000Z,101205.34
2019-02-19T11:07:56.152Z,101203.58
2019-02-19T11:10:26.260Z,101189.20
2019-02-19T11:12:56.443Z,101191.30
2019-02-19T11:15:26.536Z,101195.27
2019-02-19T11:17:56.828Z,101192.67
2019-02-19T11:20:28.902Z,101190.20
2019-02-19T11:22:59.202Z,101195.69
2019-02-19T11:25:29.334Z,101184.50
2019-02-19T11:27:59.446Z,101195.98
2019-02-19T11:30:29.550Z,101184.36
2019-02-19T11:33:02.951Z,101188.09
2019-02-19T11:35:33.080Z,101196.41
2019-02-19T11:38:03.252Z,101186.75
2019-02-19T11:40:33.393Z,101185.73
2019-02-19T11:43:03.501Z,101181.74
2019-02-19T11:45:33.704Z,101180.06
2019-02-19T11:48:03.870Z,101177.68
2019-02-19T11:50:34.247Z,101170.08
2019-02-19T11:53:05.516Z,101172.27
2019-02-19T11:55:35.664Z,101175.97
2019-02-19T11:58:05.857Z,101171.29
2019-02-19T12:00:38.441Z,101174.08
2019-02-19T12:03:08.761Z,101178.78
2019-02-19T12:05:39.031Z,101163.28
2019-02-19T12:08:09.185Z,101164.36
2019-02-19T12:10:39.387Z,101160.16
2019-02-19T12:13:09.553Z,101154.02
2019-02-19T12:15:39.775Z,101158.63
2019-02-19T12:18:09.930Z,101157.50
2019-02-19T12:20:40.254Z,101150.81
2019-02-19T12:23:10.466Z,101152.84
2019-02-19T12:25:40.609Z,101152.25
2019-02-19T12:28:10.770Z,101158.95
2019-02-19T12:30:41.009Z,101158.95
2019-02-19T12:33:11.141Z,101157.97
2019-02-19T12:35:42.946Z,101157.97
2019-02-19T12:38:13.082Z,101152.31
2019-02-19T12:40:43.259Z,101161.95
2019-02-19T12:43:15.500Z,101157.91
2019-02-19T12:45:45.665Z,101155.34
2019-02-19T12:48:16.079Z,101152.55
2019-02-19T12:50:46.261Z,101150.52
2019-02-19T12:53:16.425Z,101153.29
2019-02-19T12:55:46.583Z,101157.42
2019-02-19T12:58:16.752Z,101160.47
2019-02-19T13:00:46.970Z,101151.80
2019-02-19T13:03:17.227Z,101157.25
2019-02-19T13:05:47.409Z,101157.55
2019-02-19T13:08:17.617Z,101158.75
2019-02-19T13:10:47.776Z,101152.37
2019-02-19T13:13:17.937Z,101153.01
2019-02-19T13:15:48.148Z,101153.44
2019-02-19T13:18:18.857Z,101167.45
2019-02-19T13:20:49.215Z,101155.02
2019-02-19T13:23:20.132Z,101163.32
2019-02-19T13:25:50.964Z,101157.98
2019-02-19T13:28:21.084Z,101157.50
2019-02-19T13:30:51.244Z,101151.19
2019-02-19T13:33:21.396Z,101153.19
2019-02-19T13:35:51.557Z,101154.11
2019-02-19T13:38:21.717Z,101151.11
2019-02-19T13:40:51.844Z,101154.89
2019-02-19T13:43:22.016Z,101147.98
2019-02-19T13:45:52.259Z,101150.17
2019-02-19T13:48:22.450Z,101147.55
2019-02-19T13:50:52.577Z,101146.06
2019-02-19T13:53:27.941Z,101156.47
2019-02-19T13:55:59.098Z,101147.08
2019-02-19T13:58:29.688Z,101144.27
2019-02-19T14:01:00.145Z,101145.87
2019-02-19T14:03:30.374Z,101137.48
2019-02-19T14:06:00.499Z,101147.70
2019-02-19T14:08:30.638Z,101142.85
2019-02-19T14:11:01.752Z,101150.94
2019-02-19T14:13:32.086Z,101143.06
2019-02-19T14:16:15.695Z,101153.70
2019-02-19T14:18:53.686Z,101156.29
2019-02-19T14:21:42.828Z,101163.53
2019-02-19T14:24:34.733Z,101156.94
2019-02-19T14:27:42.335Z,101153.44
2019-02-19T14:30:34.512Z,101154.38
2019-02-19T14:33:27.316Z,101158.70
2019-02-19T14:36:14.992Z,101162.31
2019-02-19T14:39:19.610Z,101159.99
2019-02-19T14:42:23.849Z,101162.16
2019-02-19T14:45:09.486Z,101159.97
2019-02-19T14:47:57.499Z,101154.09
2019-02-19T14:50:46.654Z,101155.75
2019-02-19T14:53:45.248Z,101157.56
2019-02-19T14:56:35.118Z,101162.91
2019-02-19T14:59:42.514Z,101157.95
2019-02-19T15:02:30.341Z,101153.58
2019-02-19T15:05:12.621Z,101162.42
2019-02-19T15:08:00.359Z,101165.20
2019-02-19T15:10:52.266Z,101164.30
2019-02-19T15:13:41.309Z,101185.20
2019-02-19T15:16:25.239Z,101172.52
2019-02-19T15:19:07.072Z,101178.48
2019-02-19T15:22:11.881Z,101176.78
2019-02-19T15:24:59.891Z,101165.97
2019-02-19T15:27:42.514Z,101168.36
2019-02-19T15:30:34.415Z,101166.61
2019-02-19T15:33:22.629Z,101167.95
2019-02-19T15:36:06.273Z,101167.48
2019-02-19T15:39:01.467Z,101171.42
2019-02-19T15:41:53.457Z,101174.29
2019-02-19T15:44:31.810Z,101176.45
2019-02-19T15:47:23.803Z,101176.67
2019-02-19T15:50:10.249Z,101176.72
2019-02-19T15:53:02.445Z,101172.59
2019-02-19T15:55:53.455Z,101176.66
2019-02-19T15:58:37.082Z,101174.73
2019-02-19T16:01:41.464Z,101174.30
2019-02-19T16:04:30.628Z,101175.73
2019-02-19T16:07:37.945Z,101180.91
2019-02-19T16:10:19.331Z,101182.23
2019-02-19T16:13:17.483Z,101172.13
2019-02-19T16:16:05.614Z,101180.95
2019-02-19T16:18:52.383Z,101178.30
2019-02-19T16:21:44.517Z,101182.84
2019-02-19T16:24:29.135Z,101184.56
2019-02-19T16:27:15.191Z,101185.03
2019-02-19T16:30:17.878Z,101186.85
2019-02-19T16:33:16.175Z,101188.09
2019-02-19T16:35:54.980Z,101193.91
2019-02-19T16:38:53.057Z,101203.63
2019-02-19T16:41:37.084Z,101211.16
2019-02-19T16:44:32.156Z,101239.11
2019-02-19T16:47:30.850Z,101244.00
2019-02-19T16:50:08.806Z,101263.98
2019-02-19T16:52:48.175Z,101248.66
2019-02-19T16:55:36.501Z,101248.20
2019-02-19T16:58:31.425Z,101250.87
2019-02-19T17:01:38.764Z,101256.13
2019-02-19T17:04:22.063Z,101254.81
2019-02-19T17:07:02.755Z,101257.00
2019-02-19T17:09:43.132Z,101249.95
2019-02-19T17:12:44.441Z,101254.36
2019-02-19T17:15:36.687Z,101260.50
2019-02-19T17:18:27.575Z,101263.14
2019-02-19T17:21:23.418Z,101271.08
2019-02-19T17:24:12.346Z,101280.75
2019-02-19T17:27:09.038Z,101277.24
2019-02-19T17:29:57.640Z,101282.08
2019-02-19T17:32:50.525Z,101294.41
2019-02-19T17:35:37.708Z,101293.09
2019-02-19T17:38:33.112Z,101298.80
2019-02-19T17:41:09.417Z,101307.16
2019-02-19T17:43:59.886Z,101304.52
2019-02-19T17:46:43.816Z,101307.13
2019-02-19T17:49:39.218Z,101308.00
2019-02-19T17:52:34.650Z,101307.14
2019-02-19T17:55:27.232Z,101309.34
2019-02-19T17:58:19.536Z,101311.92
2019-02-19T18:00:59.876Z,101319.84
2019-02-19T18:03:55.049Z,101313.27
2019-02-19T18:06:43.475Z,101326.03
2019-02-19T18:09:29.945Z,101322.95
2019-02-19T18:12:05.508Z,101323.81
2019-02-19T18:15:06.509Z,101328.64
2019-02-19T18:17:55.238Z,101326.48
2019-02-19T18:20:25.796Z,101334.81
2019-02-19T18:22:55.988Z,101333.94
2019-02-19T18:25:31.406Z,101337.00
2019-02-19T18:28:01.552Z,101337.90
2019-02-19T18:30:32.367Z,101346.67
2019-02-19T18:33:02.964Z,101339.22
2019-02-19T18:35:35.967Z,101344.06
2019-02-19T18:38:06.559Z,101345.83
2019-02-19T18:40:36.670Z,101350.23
2019-02-19T18:43:06.839Z,101352.45
2019-02-19T18:45:38.132Z,101355.51
2019-02-19T18:48:10.768Z,101357.27
2019-02-19T18:50:40.966Z,101365.63
2019-02-19T18:53:11.168Z,101365.63
2019-02-19T18:55:41.319Z,101360.80
2019-02-19T18:58:11.935Z,101365.20
2019-02-19T19:00:42.495Z,101366.07
2019-02-19T19:03:13.869Z,101366.97
2019-02-19T19:05:46.850Z,101376.63
2019-02-19T19:08:18.920Z,101374.91
2019-02-19T19:10:49.987Z,101380.61
2019-02-19T19:13:20.163Z,101378.83
2019-02-19T19:15:50.503Z,101379.30
2019-02-19T19:18:23.707Z,101376.66
2019-02-19T19:20:57.445Z,101374.00
2019-02-19T19:23:28.207Z,101370.52
2019-02-19T19:25:58.755Z,101369.63
2019-02-19T19:28:28.943Z,101368.75
2019-02-19T19:31:01.057Z,101369.19
2019-02-19T19:33:31.213Z,101372.69
2019-02-19T19:36:03.230Z,101378.41
2019-02-19T19:38:34.015Z,101385.45
2019-02-19T19:41:04.428Z,101379.28
2019-02-19T19:43:34.740Z,101384.56
2019-02-19T19:46:06.769Z,101382.34
2019-02-19T19:48:43.305Z,101386.33
2019-02-19T19:51:24.279Z,101392.47
2019-02-19T19:53:54.093Z,101392.91
2019-02-19T19:56:24.321Z,101397.30
2019-02-19T19:58:54.540Z,101397.30
2019-02-19T20:01:24.990Z,101407.41
2019-02-19T20:03:55.165Z,101397.28
2019-02-19T20:06:27.933Z,101395.52
2019-02-19T20:08:58.388Z,101399.92
2019-02-19T20:11:28.627Z,101397.28
2019-02-19T20:14:04.437Z,101405.61
2019-02-19T20:16:37.493Z,101398.57
2019-02-19T20:19:09.607Z,101396.38
2019-02-19T20:21:42.108Z,101405.65
2019-02-19T20:24:12.388Z,101404.32
2019-02-19T20:26:42.815Z,101414.00
2019-02-19T20:29:13.642Z,101414.02
2019-02-19T20:31:43.948Z,101416.24
2019-02-19T20:34:14.241Z,101417.11
2019-02-19T20:36:44.618Z,101418.00
2019-02-19T20:39:14.997Z,101418.89
2019-02-19T20:41:45.299Z,101421.53
2019-02-19T20:44:16.608Z,101424.17
2019-02-19T20:46:46.903Z,101430.34
2019-02-19T20:49:17.200Z,101416.23
2019-02-19T20:51:47.374Z,101413.62
2019-02-19T20:54:17.648Z,101429.44
2019-02-19T20:56:47.812Z,101433.39
2019-02-19T20:59:18.109Z,101431.64
2019-02-19T21:01:48.284Z,101433.87
2019-02-19T21:04:21.586Z,101432.98
2019-02-19T21:06:51.780Z,101427.27
2019-02-19T21:09:22.080Z,101432.10
2019-02-19T21:11:52.449Z,101429.89
2019-02-19T21:14:22.909Z,101435.18
2019-02-19T21:16:53.239Z,101434.73
2019-02-19T21:19:23.448Z,101440.91
2019-02-19T21:21:56.026Z,101432.98
2019-02-19T21:24:26.282Z,101432.09
2019-02-19T21:26:59.631Z,101438.25
2019-02-19T21:29:29.919Z,101432.52
2019-02-19T21:32:00.225Z,101435.61
2019-02-19T21:34:30.427Z,101438.70
2019-02-19T21:37:00.696Z,101434.28
2019-02-19T21:39:31.014Z,101433.42
2019-02-19T21:42:01.257Z,101432.98
2019-02-19T21:44:31.535Z,101433.40
2019-02-19T21:47:01.776Z,101432.08
2019-02-19T21:49:32.311Z,101442.64
2019-02-19T21:52:02.612Z,101440.91
2019-02-19T21:54:32.864Z,101447.07
2019-02-19T21:57:03.104Z,101439.13
2019-02-19T21:59:34.352Z,101438.25
2019-02-19T22:02:04.574Z,101443.98
2019-02-19T22:04:34.901Z,101440.90
2019-02-19T22:07:07.866Z,101439.15
2019-02-19T22:09:38.083Z,101443.53
2019-02-19T22:12:08.240Z,101444.41
2019-02-19T22:14:38.380Z,101440.02
2019-02-19T22:17:08.546Z,101442.64
2019-02-19T22:19:38.706Z,101444.85
2019-02-19T22:22:12.986Z,101445.31
2019-02-19T22:24:43.142Z,101448.38
2019-02-19T22:27:13.334Z,101448.81
2019-02-19T22:29:43.456Z,101446.17
2019-02-19T22:32:14.904Z,101450.58
2019-02-19T22:34:45.331Z,101447.05
2019-02-19T22:37:15.421Z,101446.61
2019-02-19T22:39:47.358Z,101452.34
2019-02-19T22:42:18.666Z,101447.50
2019-02-19T22:44:48.860Z,101451.47
2019-02-19T22:47:19.003Z,101447.95
2019-02-19T22:49:49.150Z,101450.56
2019-02-19T22:52:20.418Z,101454.11
2019-02-19T22:55:12.315Z,101454.53
2019-02-19T22:57:42.433Z,101451.45
2019-02-19T23:00:33.366Z,101460.24
2019-02-19T23:03:05.631Z,101463.34
2019-02-19T23:05:36.025Z,101461.58
2019-02-19T23:08:06.209Z,101461.13
2019-02-19T23:10:36.463Z,101459.39
2019-02-19T23:13:06.685Z,101460.23
2019-02-19T23:15:36.910Z,101465.97
2019-02-19T23:18:07.099Z,101468.16
2019-02-19T23:20:37.248Z,101466.84
2019-02-19T23:23:07.492Z,101471.25
2019-02-19T23:25:37.671Z,101472.12
2019-02-19T23:28:07.921Z,101473.91
2019-02-19T23:30:39.298Z,101469.92
2019-02-19T23:33:09.514Z,101466.40
2019-02-19T23:35:44.143Z,101469.06
2019-02-19T23:38:15.673Z,101475.19
2019-02-19T23:40:45.753Z,101473.86
2019-02-19T23:43:15.913Z,101480.89
2019-02-19T23:45:46.099Z,101482.20
2019-02-19T23:48:16.237Z,101483.55
2019-02-19T23:50:46.435Z,101490.16
2019-02-19T23:53:16.700Z,101489.28
2019-02-19T23:55:46.879Z,101486.19
2019-02-19T23:58:17.918Z,101491.91
